Flight Track Log - Related Links

Times and Time Zones

All times are in EST time to prevent confusion due to time zone crossing. See the N5219N flight status page for this flight to view local times or setup timezone preferences in your user account.

Time Position Orientation Groundspeed Altitude Reporting Facility
EST Latitude Longitude Course Direction KTS MPH feet Rate Location/Type
Wed 02:15:34 PM 30.0628 -95.5533 352° North 74 85 500  Level Houston Center
Wed 02:16:36 PM 30.0883 -95.5575 352° North 82 94 1,400 638 Climbing Houston Center
Wed 02:17:08 PM 30.1019 -95.5592 354° North 88 101 1,500 295 Climbing Houston Center
Wed 02:17:37 PM 30.1131 -95.5547 19° North 93 107 1,700 190 Climbing Houston Center
Wed 02:18:11 PM 30.1247 -95.5469 30° Northeast 89 102 1,700 393 Level Houston Center
Wed 02:18:38 PM 30.1344 -95.5353 46° Northeast 94 108 2,100 581 Climbing Houston Center
Wed 02:19:13 PM 30.1469 -95.5272 29° Northeast 95 109 2,300 581 Climbing Houston Center
Wed 02:19:40 PM 30.1603 -95.5178 31° Northeast 97 112 2,700 387 Climbing Houston Center
Wed 02:20:15 PM 30.1706 -95.5111 29° Northeast 97 112 2,700 290 Level Houston Center
Wed 02:20:42 PM 30.1819 -95.5031 31° Northeast 97 112 3,000 290 Climbing Houston Center
Wed 02:21:17 PM 30.1933 -95.4947 32° Northeast 97 112 3,000 98 Level Houston Center
Wed 02:21:43 PM 30.2103 -95.4900 14° North 111 128 3,100  Climbing Houston Center
Wed 02:22:19 PM 30.2231 -95.4861 15° North 106 122 3,000  Descending Houston Center
Wed 02:22:45 PM 30.2408 -95.4814 13° North 115 132 3,100 194 Climbing Houston Center
Wed 02:23:21 PM 30.2600 -95.4772 11° North 111 128 3,200 393 Climbing Houston Center
Wed 02:23:46 PM 30.2719 -95.4753 North 104 120 3,500 484 Climbing Houston Center
Wed 02:24:23 PM 30.2897 -95.4725 North 110 127 3,700 484 Climbing Houston Center
Wed 02:24:48 PM 30.3008 -95.4719 North 101 116 4,000 484 Climbing Houston Center
Wed 02:25:25 PM 30.3164 -95.4678 13° North 104 120 4,200 492 Climbing Houston Center
Wed 02:25:49 PM 30.3278 -95.4661 North 101 116 4,500 381 Climbing Houston Center
Wed 02:26:28 PM 30.3442 -95.4625 11° North 102 117 4,600 356 Climbing Houston Center
Wed 02:27:30 PM 30.3736 -95.4567 10° North 103 119 5,100 532 Climbing Houston Center
Wed 02:28:32 PM 30.4083 -95.4486 11° North 105 121 5,700 532 Climbing Houston Center
Wed 02:29:34 PM 30.4369 -95.4403 14° North 105 121 6,200 387 Climbing Houston Center
Wed 02:30:36 PM 30.4658 -95.4294 18° North 108 124 6,500 339 Climbing Houston Center
Wed 02:31:38 PM 30.4939 -95.4228 12° North 105 121 6,900 242 Climbing Houston Center
Wed 02:32:40 PM 30.5242 -95.4167 10° North 107 123 7,000 97 Climbing Houston Center
Wed 02:33:42 PM 30.5581 -95.4106 North 118 136 7,100  Climbing Houston Center
Wed 02:34:45 PM 30.5994 -95.4028 North 123 142 7,000 -48 Descending Houston Center
Wed 02:35:47 PM 30.6347 -95.3972 North 126 145 7,000  Level Houston Center
Wed 02:36:49 PM 30.6692 -95.3900 10° North 125 144 7,000  Level Houston Center
Wed 02:37:51 PM 30.7039 -95.3817 12° North 127 146 7,000  Level Houston Center
Wed 02:38:53 PM 30.7372 -95.3761 North 122 140 7,000 48 Level Houston Center
Wed 02:39:55 PM 30.7714 -95.3706 North 123 142 7,100  Climbing Houston Center
Wed 02:40:57 PM 30.8139 -95.3619 10° North 127 146 7,000 -48 Descending Houston Center
Wed 02:41:59 PM 30.8486 -95.3533 12° North 127 146 7,000  Level Houston Center
Wed 02:43:02 PM 30.8831 -95.3456 11° North 126 145 7,000  Level Houston Center
Wed 02:44:04 PM 30.9169 -95.3353 15° North 125 144 7,000  Level Houston Center
Wed 02:45:06 PM 30.9514 -95.3256 14° North 128 147 7,000 48 Level Houston Center
Wed 02:46:08 PM 30.9853 -95.3172 12° North 125 144 7,100 48 Climbing Houston Center
Wed 02:47:10 PM 31.0261 -95.3086 10° North 125 144 7,100  Level Houston Center
Wed 02:48:12 PM 31.0617 -95.3014 10° North 128 147 7,100  Level Houston Center
Wed 02:49:14 PM 31.0964 -95.2978 North 126 145 7,100  Level Houston Center
Wed 02:50:17 PM 31.1303 -95.2939 North 127 146 7,100 -48 Level Houston Center
Wed 02:51:19 PM 31.1664 -95.2883 North 125 144 7,000 -48 Descending Houston Center
Wed 02:52:21 PM 31.2017 -95.2803 11° North 127 146 7,000 48 Level Houston Center
Wed 02:53:23 PM 31.2422 -95.2706 12° North 125 144 7,100 48 Climbing Houston Center
Wed 02:54:25 PM 31.2761 -95.2631 11° North 124 143 7,100  Level Houston Center
Wed 02:55:27 PM 31.3114 -95.2553 11° North 127 146 7,100  Level Houston Center
Wed 02:56:29 PM 31.3450 -95.2461 13° North 126 145 7,100  Level Houston Center
Wed 02:57:32 PM 31.3808 -95.2372 12° North 129 148 7,100  Level Houston Center
Wed 02:58:34 PM 31.4156 -95.2289 12° North 128 147 7,100  Level Houston Center
Wed 02:59:36 PM 31.4514 -95.2178 15° North 130 150 7,100  Level Houston Center
Wed 03:00:38 PM 31.4936 -95.2089 10° North 129 148 7,100  Level Houston Center
Wed 03:01:40 PM 31.5292 -95.1992 13° North 129 148 7,100 -48 Level Houston Center
Wed 03:02:42 PM 31.5653 -95.1911 11° North 130 150 7,000 -48 Descending Houston Center
Wed 03:03:44 PM 31.6006 -95.1831 11° North 130 150 7,000  Level Houston Center
Wed 03:04:50 PM 31.6444 -95.1756 North 126 145 7,000  Level Fort Worth Center
Wed 03:05:50 PM 31.6797 -95.1700 North 126 145 7,000  Level Fort Worth Center
Wed 03:06:50 PM 31.7153 -95.1617 11° North 126 145 7,000 50 Level Fort Worth Center
Wed 03:07:50 PM 31.7483 -95.1511 15° North 126 145 7,100  Climbing Fort Worth Center
Wed 03:08:50 PM 31.7839 -95.1453 North 126 145 7,000 -50 Descending Fort Worth Center
Wed 03:09:50 PM 31.8150 -95.1350 16° North 126 145 7,000  Level Fort Worth Center
Wed 03:10:50 PM 31.8522 -95.1242 14° North 126 145 7,000  Level Fort Worth Center
Wed 03:11:50 PM 31.8856 -95.1158 12° North 126 145 7,000  Level Fort Worth Center
Wed 03:12:50 PM 31.9231 -95.1078 10° North 126 145 7,000  Level Fort Worth Center
Wed 03:13:50 PM 31.9606 -95.1019 North 126 145 7,000 50 Level Fort Worth Center
Wed 03:14:50 PM 31.9958 -95.0936 11° North 126 145 7,100 50 Climbing Fort Worth Center
Wed 03:15:50 PM 32.0333 -95.0903 North 126 145 7,100 -4 Level Fort Worth Center
Wed 03:17:00 PM 32.0757 -95.0788 13° North  Level FlightAware Approximate
Wed 03:24:00 PM 32.3302 -95.0099 13° North  Level FlightAware Approximate
Wed 03:25:00 PM 32.3665 -95.0000 13° North  Level FlightAware Approximate
Wed 03:26:00 PM 32.3570 -94.9568 105° East  Level FlightAware Approximate
Wed 03:27:00 PM 32.3941 -94.9491 45° Northeast  Level Estimated
Wed 03:28:00 PM 32.3992 -94.9048 82° East  Level FlightAware Approximate
Wed 03:29:00 PM 32.4042 -94.8606 82° East  Level FlightAware Approximate
Wed 03:30:00 PM 32.4414 -94.8536 27° Northeast  Level Estimated
Wed 03:31:00 PM 32.4676 -94.8214 46° Northeast  Level FlightAware Approximate
Wed 03:32:00 PM 32.4937 -94.7892 46° Northeast  Level FlightAware Approximate
Wed 03:33:00 PM 32.5199 -94.7569 46° Northeast  Level FlightAware Approximate
Wed 03:34:00 PM 32.5460 -94.7247 46° Northeast  Level FlightAware Approximate
Wed 03:35:00 PM 32.5721 -94.6924 46° Northeast  Level FlightAware Approximate
Wed 03:36:00 PM 32.5982 -94.6601 46° Northeast  Level FlightAware Approximate
Wed 03:37:00 PM 32.6356 -94.6547 28° Northeast  Level Estimated
Wed 03:38:00 PM 32.6663 -94.6286 36° Northeast  Level FlightAware Approximate
Wed 03:38:01 PM 32.7444 -94.5533 29° Northeast 157 181 7,000  Level Fort Worth Center
Wed 03:39:00 PM 32.6969 -94.6025 36° Northeast  Level FlightAware Approximate
Wed 03:39:01 PM 32.7756 -94.5375 23° Northeast 146 168 7,000  Level Fort Worth Center
Wed 03:40:00 PM 32.7275 -94.5763 36° Northeast  Level FlightAware Approximate
Wed 03:40:02 PM 32.8125 -94.5142 28° Northeast 131 151 7,000  Level Fort Worth Center
Wed 03:41:00 PM 32.7581 -94.5501 36° Northeast  Level FlightAware Approximate
Wed 03:41:02 PM 32.8433 -94.4933 30° Northeast 137 158 7,000  Level Fort Worth Center
Wed 03:42:00 PM 32.7956 -94.5456 29° Northeast  Level Estimated
Wed 03:42:02 PM 32.8825 -94.4672 29° Northeast 137 158 7,000  Level Fort Worth Center
Wed 03:43:02 PM 32.9111 -94.4489 28° Northeast 132 152 7,000 50 Level Fort Worth Center
Wed 03:44:02 PM 32.9481 -94.4231 30° Northeast 137 158 7,100 50 Climbing Fort Worth Center
Wed 03:45:02 PM 32.9792 -94.4047 26° Northeast 137 158 7,100  Level Fort Worth Center
Wed 03:46:02 PM 33.0142 -94.3836 27° Northeast 137 158 7,100 -50 Level Fort Worth Center
Wed 03:47:02 PM 33.0511 -94.3625 26° Northeast 137 158 7,000 -50 Descending Fort Worth Center
Wed 03:48:02 PM 33.0861 -94.3439 24° Northeast 137 158 7,000  Level Fort Worth Center
Wed 03:49:02 PM 33.1167 -94.3131 40° Northeast 143 165 7,000  Level Fort Worth Center
Wed 03:50:02 PM 33.1536 -94.2872 30° Northeast 143 165 7,000 50 Level Fort Worth Center
Wed 03:51:02 PM 33.1844 -94.2686 27° Northeast 137 158 7,100  Climbing Fort Worth Center
Wed 03:52:02 PM 33.2233 -94.2425 29° Northeast 137 158 7,000 -50 Descending Fort Worth Center
Wed 03:53:01 PM 33.2503 -94.2267 26° Northeast 137 158 7,000  Level Fort Worth Center
Wed 03:54:02 PM 33.2892 -94.2053 25° Northeast 137 158 7,000  Level Fort Worth Center
Wed 03:55:02 PM 33.3242 -94.1842 27° Northeast 137 158 7,000  Level Fort Worth Center
Wed 03:56:02 PM 33.3614 -94.1653 23° Northeast 137 158 7,000  Level Fort Worth Center
Wed 03:57:02 PM 33.3900 -94.1494 25° Northeast 137 158 7,000  Level Fort Worth Center
Wed 03:59:02 PM 33.3900 -94.1494 270° West 137 158 7,000  Level Fort Worth Center
Wed 04:01:02 PM 33.3900 -94.1494 270° West 137 158 7,000  Level Fort Worth Center
Wed 04:03:02 PM 33.3900 -94.1494 270° West 137 158 7,000  Level Fort Worth Center
Wed 04:05:02 PM 33.3900 -94.1494 270° West 137 158 7,000  Level Fort Worth Center
Wed 04:07:02 PM 33.7728 -94.0978 North 137 158 7,000  Level Fort Worth Center
Wed 04:08:02 PM 33.8083 -94.1039 352° North 137 158 7,000  Level Fort Worth Center
Wed 04:09:02 PM 33.8461 -94.1075 355° North 137 158 7,000  Level Fort Worth Center
Wed 04:10:02 PM 33.8817 -94.1136 352° North 137 158 7,000  Level Fort Worth Center
Wed 04:11:02 PM 33.9194 -94.1172 355° North 137 158 7,000  Level Fort Worth Center
Wed 04:12:01 PM 33.9506 -94.1133 North 137 158 7,000  Level Fort Worth Center
Wed 04:13:02 PM 33.9925 -94.1169 356° North 142 163 7,000  Level Fort Worth Center
Wed 04:14:02 PM 34.0303 -94.1256 349° North 142 163 7,000  Level Fort Worth Center
Wed 04:16:09 PM 34.1094 -94.1328 356° North 135 155 7,000  Level Memphis Center
Wed 04:17:11 PM 34.1481 -94.1369 355° North 137 158 7,000  Level Memphis Center
Wed 04:18:13 PM 34.1856 -94.1417 354° North 137 158 7,000  Level Memphis Center
Wed 04:19:15 PM 34.2317 -94.1481 353° North 137 158 7,000 -48 Level Memphis Center
Wed 04:20:17 PM 34.2686 -94.1525 354° North 136 157 6,900 -48 Descending Memphis Center
Wed 04:21:19 PM 34.3069 -94.1550 357° North 137 158 6,900  Level Memphis Center
Wed 04:22:22 PM 34.3439 -94.1578 356° North 136 157 6,900  Level Memphis Center
Wed 04:23:24 PM 34.3817 -94.1594 358° North 136 157 6,900  Level Memphis Center
Wed 04:24:26 PM 34.4192 -94.1628 356° North 136 157 6,900  Level Memphis Center
Wed 04:25:28 PM 34.4644 -94.1653 357° North 135 155 6,900 48 Level Memphis Center
Wed 04:26:30 PM 34.5019 -94.1675 357° North 135 155 7,000 48 Climbing Memphis Center
Wed 04:27:32 PM 34.5389 -94.1733 353° North 134 154 7,000  Level Memphis Center
Wed 04:28:34 PM 34.5758 -94.1781 354° North 134 154 7,000 48 Level Memphis Center
Wed 04:29:36 PM 34.6136 -94.1767 North 135 155 7,100 48 Climbing Memphis Center
Wed 04:30:38 PM 34.6511 -94.1733 North 136 157 7,100 -48 Level Memphis Center
Wed 04:31:40 PM 34.6961 -94.1697 North 136 157 7,000 -48 Descending Memphis Center
Wed 04:32:42 PM 34.7347 -94.1686 North 136 157 7,000  Level Memphis Center
Wed 04:33:44 PM 34.7728 -94.1683 360° North 136 157 7,000 -48 Level Memphis Center
Wed 04:34:46 PM 34.8117 -94.1669 North 138 159 6,900 -48 Descending Memphis Center
Wed 04:35:48 PM 34.8500 -94.1689 358° North 138 159 6,900  Level Memphis Center
Wed 04:36:50 PM 34.8878 -94.1683 North 137 158 6,900 48 Level Memphis Center
Wed 04:37:52 PM 34.9325 -94.1656 North 136 157 7,000 48 Climbing Memphis Center
Wed 04:38:54 PM 34.9692 -94.1636 North 134 154 7,000  Level Memphis Center
Wed 04:39:56 PM 35.0069 -94.1619 North 134 154 7,000  Level Memphis Center
Wed 04:40:59 PM 35.0456 -94.1611 North 137 158 7,000 -48 Level Memphis Center
Wed 04:42:01 PM 35.0836 -94.1589 North 137 158 6,900 -242 Descending Memphis Center
Wed 04:43:03 PM 35.1250 -94.1564 North 145 167 6,500 -435 Descending Memphis Center
Wed 04:44:05 PM 35.1769 -94.1553 North 153 176 6,000 -242 Descending Memphis Center
Wed 04:45:07 PM 35.2181 -94.1558 359° North 151 174 6,000  Level Memphis Center
Wed 04:46:09 PM 35.2567 -94.1556 360° North 143 165 6,000  Level Memphis Center
Wed 04:47:11 PM 35.2964 -94.1553 360° North 142 163 6,000  Level Memphis Center
Wed 04:48:13 PM 35.3369 -94.1547 North 144 166 6,000  Level Memphis Center
Wed 04:49:15 PM 35.3781 -94.1511 North 146 168 6,000  Level Memphis Center
Wed 04:50:17 PM 35.4256 -94.1464 North 143 165 6,000  Level Memphis Center
Wed 04:51:19 PM 35.4658 -94.1414 North 144 166 6,000 48 Level Memphis Center
Wed 04:52:21 PM 35.5058 -94.1372 North 145 167 6,100 48 Climbing Memphis Center
Wed 04:53:23 PM 35.5453 -94.1314 North 143 165 6,100  Level Memphis Center
Wed 04:54:25 PM 35.5850 -94.1328 358° North 144 166 6,100  Level Memphis Center
Wed 04:55:27 PM 35.6244 -94.1378 354° North 142 163 6,100 -48 Level Memphis Center
Wed 04:56:29 PM 35.6719 -94.1403 358° North 144 166 6,000 -48 Descending Memphis Center
Wed 04:57:32 PM 35.7125 -94.1381 North 145 167 6,000 -48 Level Memphis Center
Wed 04:58:34 PM 35.7536 -94.1347 North 146 168 5,900  Descending Memphis Center
Wed 04:59:36 PM 35.7944 -94.1319 North 147 169 6,000 -48 Climbing Memphis Center
Wed 05:00:38 PM 35.8344 -94.1294 North 145 167 5,800 -387 Descending Memphis Center
Wed 05:01:40 PM 35.8856 -94.1233 North 150 173 5,200 -484 Descending Memphis Center
Wed 05:02:42 PM 35.9278 -94.1186 North 151 174 4,800 -387 Descending Memphis Center
Wed 05:03:44 PM 35.9697 -94.1153 North 152 175 4,400 -435 Descending Memphis Center
Wed 05:04:46 PM 36.0108 -94.1119 North 150 173 3,900 -387 Descending Memphis Center
Wed 05:05:48 PM 36.0511 -94.1058 North 146 168 3,600 -290 Descending Memphis Center
Wed 05:07:00 PM 36.0972 -94.1102 356° North  Level FlightAware Approximate
Wed 05:14:00 PM 36.1667 -94.1167 North  Level FlightAware Approximate
Wed 05:15:00 PM 36.1764 -94.1192 North  Level Estimated
Wed 05:16:00 PM 36.1764 -94.1192 North  Level Estimated
Wed 05:17:00 PM 36.1764 -94.1192 North  Level Estimated
Wed 05:18:00 PM 36.1764 -94.1192 North  Level Estimated
Wed 05:19:00 PM 36.1764 -94.1192 North  Level Estimated

Login

Don't have an account? Register now (free) for customized features, flight alerts, and more!